sensor_id;sensor_type;location;lat;lon;timestamp;pressure;altitude;pressure_sealevel;temperature;humidity
32747;BME280;19118;50.860;13.662;2023-02-19T00:01:34;96777.84;;;7.01;100.00
32747;BME280;19118;50.860;13.662;2023-02-19T00:06:35;96759.44;;;7.01;100.00
32747;BME280;19118;50.860;13.662;2023-02-19T00:11:36;96752.38;;;7.02;100.00
32747;BME280;19118;50.860;13.662;2023-02-19T00:16:38;96759.34;;;6.95;100.00
32747;BME280;19118;50.860;13.662;2023-02-19T00:21:39;96749.47;;;6.97;100.00
32747;BME280;19118;50.860;13.662;2023-02-19T00:26:40;96766.50;;;7.01;100.00
32747;BME280;19118;50.860;13.662;2023-02-19T00:31:41;96759.34;;;6.95;100.00
32747;BME280;19118;50.860;13.662;2023-02-19T00:36:42;96764.00;;;6.93;100.00
32747;BME280;19118;50.860;13.662;2023-02-19T00:41:43;96775.50;;;6.92;100.00
32747;BME280;19118;50.860;13.662;2023-02-19T00:46:45;96761.97;;;6.80;100.00
32747;BME280;19118;50.860;13.662;2023-02-19T00:51:47;96776.38;;;6.69;100.00
32747;BME280;19118;50.860;13.662;2023-02-19T00:56:47;96761.94;;;6.65;100.00
32747;BME280;19118;50.860;13.662;2023-02-19T01:01:48;96756.41;;;6.60;100.00
32747;BME280;19118;50.860;13.662;2023-02-19T01:06:48;96752.41;;;6.50;100.00
32747;BME280;19118;50.860;13.662;2023-02-19T01:11:49;96758.53;;;6.42;100.00
32747;BME280;19118;50.860;13.662;2023-02-19T01:16:49;96759.34;;;6.42;100.00
32747;BME280;19118;50.860;13.662;2023-02-19T01:21:50;96755.00;;;6.35;100.00
32747;BME280;19118;50.860;13.662;2023-02-19T01:26:50;96748.09;;;6.34;100.00
32747;BME280;19118;50.860;13.662;2023-02-19T01:31:50;96750.09;;;6.32;100.00
32747;BME280;19118;50.860;13.662;2023-02-19T01:36:51;96755.00;;;6.35;100.00
32747;BME280;19118;50.860;13.662;2023-02-19T01:41:51;96746.94;;;6.36;100.00
32747;BME280;19118;50.860;13.662;2023-02-19T01:46:52;96734.53;;;6.45;100.00
32747;BME280;19118;50.860;13.662;2023-02-19T01:52:03;96730.94;;;6.46;100.00
32747;BME280;19118;50.860;13.662;2023-02-19T01:57:08;96726.66;;;6.45;100.00
32747;BME280;19118;50.860;13.662;2023-02-19T02:02:10;96716.34;;;6.43;100.00
32747;BME280;19118;50.860;13.662;2023-02-19T02:07:11;96722.41;;;6.44;100.00
32747;BME280;19118;50.860;13.662;2023-02-19T02:12:30;96709.94;;;6.46;100.00
32747;BME280;19118;50.860;13.662;2023-02-19T02:33:45;96693.50;;;6.29;100.00
32747;BME280;19118;50.860;13.662;2023-02-19T02:38:48;96684.16;;;6.27;100.00
32747;BME280;19118;50.860;13.662;2023-02-19T02:43:49;96682.44;;;6.19;100.00
32747;BME280;19118;50.860;13.662;2023-02-19T02:48:57;96672.47;;;6.15;100.00
32747;BME280;19118;50.860;13.662;2023-02-19T02:59:27;96664.25;;;5.95;100.00
32747;BME280;19118;50.860;13.662;2023-02-19T03:04:34;96664.25;;;5.95;100.00
32747;BME280;19118;50.860;13.662;2023-02-19T03:09:39;96668.41;;;5.89;100.00
32747;BME280;19118;50.860;13.662;2023-02-19T03:14:46;96688.84;;;5.71;100.00
32747;BME280;19118;50.860;13.662;2023-02-19T03:20:11;96689.13;;;5.53;100.00
32747;BME280;19118;50.860;13.662;2023-02-19T03:25:20;96700.13;;;5.48;100.00
32747;BME280;19118;50.860;13.662;2023-02-19T03:30:46;96693.25;;;5.47;100.00
32747;BME280;19118;50.860;13.662;2023-02-19T03:35:54;96693.13;;;5.41;100.00
32747;BME280;19118;50.860;13.662;2023-02-19T03:41:04;96679.50;;;5.45;100.00
32747;BME280;19118;50.860;13.662;2023-02-19T03:46:26;96673.28;;;5.46;100.00
32747;BME280;19118;50.860;13.662;2023-02-19T03:51:33;96672.78;;;5.43;100.00
32747;BME280;19118;50.860;13.662;2023-02-19T03:56:59;96654.56;;;5.49;100.00
32747;BME280;19118;50.860;13.662;2023-02-19T04:02:40;96641.88;;;5.61;100.00
32747;BME280;19118;50.860;13.662;2023-02-19T04:07:45;96624.63;;;5.67;100.00
32747;BME280;19118;50.860;13.662;2023-02-19T04:12:54;96611.59;;;5.96;100.00
32747;BME280;19118;50.860;13.662;2023-02-19T04:18:06;96611.59;;;6.11;100.00
32747;BME280;19118;50.860;13.662;2023-02-19T04:23:08;96620.22;;;6.20;100.00
32747;BME280;19118;50.860;13.662;2023-02-19T04:28:08;96614.34;;;6.32;100.00
32747;BME280;19118;50.860;13.662;2023-02-19T04:33:09;96600.34;;;6.40;100.00
32747;BME280;19118;50.860;13.662;2023-02-19T04:38:09;96598.34;;;6.42;100.00
32747;BME280;19118;50.860;13.662;2023-02-19T04:43:10;96573.06;;;6.41;100.00
32747;BME280;19118;50.860;13.662;2023-02-19T04:48:10;96567.19;;;6.39;100.00
32747;BME280;19118;50.860;13.662;2023-02-19T04:53:10;96563.47;;;6.33;100.00
32747;BME280;19118;50.860;13.662;2023-02-19T04:58:11;96562.56;;;6.41;100.00
32747;BME280;19118;50.860;13.662;2023-02-19T05:03:11;96548.44;;;6.42;100.00
32747;BME280;19118;50.860;13.662;2023-02-19T05:08:11;96532.44;;;6.37;100.00
32747;BME280;19118;50.860;13.662;2023-02-19T05:13:12;96521.91;;;6.37;100.00
32747;BME280;19118;50.860;13.662;2023-02-19T05:18:12;96486.03;;;6.44;100.00
32747;BME280;19118;50.860;13.662;2023-02-19T05:23:12;96493.81;;;6.52;100.00
32747;BME280;19118;50.860;13.662;2023-02-19T05:28:12;96490.31;;;6.66;100.00
32747;BME280;19118;50.860;13.662;2023-02-19T05:33:17;96476.94;;;6.61;100.00
32747;BME280;19118;50.860;13.662;2023-02-19T05:38:19;96459.56;;;6.60;100.00
32747;BME280;19118;50.860;13.662;2023-02-19T05:43:19;96473.31;;;6.62;100.00
32747;BME280;19118;50.860;13.662;2023-02-19T05:48:19;96489.09;;;6.62;100.00
32747;BME280;19118;50.860;13.662;2023-02-19T05:53:20;96499.22;;;6.65;100.00
32747;BME280;19118;50.860;13.662;2023-02-19T05:58:20;96502.84;;;6.64;100.00
32747;BME280;19118;50.860;13.662;2023-02-19T06:03:21;96529.97;;;6.50;100.00
32747;BME280;19118;50.860;13.662;2023-02-19T06:08:21;96532.34;;;6.16;100.00
32747;BME280;19118;50.860;13.662;2023-02-19T06:13:21;96537.31;;;6.10;100.00
32747;BME280;19118;50.860;13.662;2023-02-19T06:18:22;96555.41;;;6.05;100.00
32747;BME280;19118;50.860;13.662;2023-02-19T06:23:22;96560.72;;;5.97;100.00
32747;BME280;19118;50.860;13.662;2023-02-19T06:28:23;96573.53;;;6.00;100.00
32747;BME280;19118;50.860;13.662;2023-02-19T06:33:23;96573.03;;;5.97;100.00
32747;BME280;19118;50.860;13.662;2023-02-19T06:38:23;96589.28;;;6.00;100.00
32747;BME280;19118;50.860;13.662;2023-02-19T06:43:24;96594.53;;;6.00;100.00
32747;BME280;19118;50.860;13.662;2023-02-19T06:48:28;96598.66;;;6.09;100.00
32747;BME280;19118;50.860;13.662;2023-02-19T06:53:29;96600.03;;;6.20;100.00
32747;BME280;19118;50.860;13.662;2023-02-19T06:58:30;96615.59;;;6.22;100.00
32747;BME280;19118;50.860;13.662;2023-02-19T07:03:30;96623.22;;;6.31;100.00
32747;BME280;19118;50.860;13.662;2023-02-19T07:08:30;96639.47;;;6.35;100.00
32747;BME280;19118;50.860;13.662;2023-02-19T07:13:31;96637.09;;;6.40;100.00
32747;BME280;19118;50.860;13.662;2023-02-19T07:18:31;96638.34;;;6.44;100.00
32747;BME280;19118;50.860;13.662;2023-02-19T07:23:32;96641.28;;;6.49;100.00
32747;BME280;19118;50.860;13.662;2023-02-19T07:28:32;96629.59;;;6.52;100.00
32747;BME280;19118;50.860;13.662;2023-02-19T07:33:32;96639.28;;;6.51;100.00
32747;BME280;19118;50.860;13.662;2023-02-19T07:38:33;96634.84;;;6.52;100.00
32747;BME280;19118;50.860;13.662;2023-02-19T07:43:34;96632.84;;;6.54;100.00
32747;BME280;19118;50.860;13.662;2023-02-19T07:48:35;96641.66;;;6.46;100.00
32747;BME280;19118;50.860;13.662;2023-02-19T07:53:36;96637.28;;;6.24;100.00
32747;BME280;19118;50.860;13.662;2023-02-19T07:58:37;96654.84;;;6.23;100.00
32747;BME280;19118;50.860;13.662;2023-02-19T08:03:38;96732.69;;;5.85;100.00
32747;BME280;19118;50.860;13.662;2023-02-19T08:08:38;96702.75;;;4.78;100.00
32747;BME280;19118;50.860;13.662;2023-02-19T08:13:39;96703.13;;;5.06;100.00
32747;BME280;19118;50.860;13.662;2023-02-19T08:18:39;96725.44;;;5.02;100.00
32747;BME280;19118;50.860;13.662;2023-02-19T08:23:39;96749.91;;;4.62;100.00
32747;BME280;19118;50.860;13.662;2023-02-19T08:28:40;96761.06;;;4.48;100.00
32747;BME280;19118;50.860;13.662;2023-02-19T08:33:41;96776.13;;;4.46;100.00
32747;BME280;19118;50.860;13.662;2023-02-19T08:38:41;96795.75;;;4.09;100.00
32747;BME280;19118;50.860;13.662;2023-02-19T08:43:42;96806.53;;;4.06;100.00
32747;BME280;19118;50.860;13.662;2023-02-19T08:48:42;96842.31;;;3.89;100.00
32747;BME280;19118;50.860;13.662;2023-02-19T08:53:43;96859.44;;;3.84;100.00
32747;BME280;19118;50.860;13.662;2023-02-19T08:58:43;96882.72;;;3.27;100.00
32747;BME280;19118;50.860;13.662;2023-02-19T09:03:44;96917.81;;;3.24;100.00
32747;BME280;19118;50.860;13.662;2023-02-19T09:08:45;96947.94;;;3.10;100.00
32747;BME280;19118;50.860;13.662;2023-02-19T09:13:45;96966.38;;;3.09;100.00
32747;BME280;19118;50.860;13.662;2023-02-19T09:18:46;96971.94;;;2.88;100.00
32747;BME280;19118;50.860;13.662;2023-02-19T09:23:46;96992.38;;;2.75;100.00
32747;BME280;19118;50.860;13.662;2023-02-19T09:28:46;97017.53;;;2.48;100.00
32747;BME280;19118;50.860;13.662;2023-02-19T09:33:47;97041.41;;;2.53;100.00
32747;BME280;19118;50.860;13.662;2023-02-19T09:38:47;97094.41;;;4.90;100.00
32747;BME280;19118;50.860;13.662;2023-02-19T09:43:48;97075.94;;;3.10;100.00
32747;BME280;19118;50.860;13.662;2023-02-19T09:48:48;97079.91;;;3.14;100.00
32747;BME280;19118;50.860;13.662;2023-02-19T09:53:49;97087.53;;;3.08;100.00
32747;BME280;19118;50.860;13.662;2023-02-19T09:58:53;97111.69;;;2.65;100.00
32747;BME280;19118;50.860;13.662;2023-02-19T10:03:54;97123.47;;;2.41;100.00
32747;BME280;19118;50.860;13.662;2023-02-19T10:09:40;97123.19;;;2.07;100.00
32747;BME280;19118;50.860;13.662;2023-02-19T10:14:29;97130.69;;;2.20;100.00
32747;BME280;19118;50.860;13.662;2023-02-19T10:19:33;97142.56;;;1.85;100.00
32747;BME280;19118;50.860;13.662;2023-02-19T10:24:33;97157.59;;;2.20;100.00
32747;BME280;19118;50.860;13.662;2023-02-19T10:29:34;97152.53;;;2.19;100.00
32747;BME280;19118;50.860;13.662;2023-02-19T10:34:34;97167.34;;;2.28;100.00
32747;BME280;19118;50.860;13.662;2023-02-19T10:39:41;97156.44;;;3.25;100.00
32747;BME280;19118;50.860;13.662;2023-02-19T10:44:45;97165.84;;;3.17;100.00
32747;BME280;19118;50.860;13.662;2023-02-19T10:49:47;97162.88;;;3.30;100.00
32747;BME280;19118;50.860;13.662;2023-02-19T10:55:35;97167.78;;;3.51;100.00
32747;BME280;19118;50.860;13.662;2023-02-19T11:05:17;97168.38;;;3.09;100.00
32747;BME280;19118;50.860;13.662;2023-02-19T11:10:27;97173.19;;;2.77;100.00
32747;BME280;19118;50.860;13.662;2023-02-19T11:15:32;97183.25;;;3.62;100.00
32747;BME280;19118;50.860;13.662;2023-02-19T11:20:33;97178.94;;;3.89;100.00
32747;BME280;19118;50.860;13.662;2023-02-19T11:25:33;97185.53;;;3.75;100.00
32747;BME280;19118;50.860;13.662;2023-02-19T11:30:40;97193.94;;;3.87;100.00
32747;BME280;19118;50.860;13.662;2023-02-19T11:35:42;97191.78;;;3.46;100.00
32747;BME280;19118;50.860;13.662;2023-02-19T11:45:58;97172.50;;;3.02;100.00
32747;BME280;19118;50.860;13.662;2023-02-19T11:51:12;97173.94;;;3.42;100.00
32747;BME280;19118;50.860;13.662;2023-02-19T11:56:21;97193.41;;;3.30;100.00
32747;BME280;19118;50.860;13.662;2023-02-19T12:07:22;97164.22;;;3.34;100.00
32747;BME280;19118;50.860;13.662;2023-02-19T12:12:37;97158.72;;;3.10;100.00
32747;BME280;19118;50.860;13.662;2023-02-19T12:28:46;97160.47;;;3.72;100.00
32747;BME280;19118;50.860;13.662;2023-02-19T12:44:42;97109.06;;;4.07;100.00
32747;BME280;19118;50.860;13.662;2023-02-19T12:55:20;97084.81;;;3.53;100.00
32747;BME280;19118;50.860;13.662;2023-02-19T13:00:36;97088.13;;;4.07;100.00
32747;BME280;19118;50.860;13.662;2023-02-19T13:05:48;97090.84;;;3.71;100.00
32747;BME280;19118;50.860;13.662;2023-02-19T13:11:09;97110.34;;;3.77;100.00
32747;BME280;19118;50.860;13.662;2023-02-19T13:16:14;97113.28;;;3.56;100.00
32747;BME280;19118;50.860;13.662;2023-02-19T13:21:17;97121.47;;;3.61;100.00
32747;BME280;19118;50.860;13.662;2023-02-19T13:26:49;97134.72;;;3.42;100.00
32747;BME280;19118;50.860;13.662;2023-02-19T13:37:05;97129.84;;;3.47;100.00
32747;BME280;19118;50.860;13.662;2023-02-19T13:42:24;97139.47;;;3.82;100.00
32747;BME280;19118;50.860;13.662;2023-02-19T13:47:48;97152.53;;;3.82;100.00
32747;BME280;19118;50.860;13.662;2023-02-19T13:52:58;97172.28;;;3.76;100.00
32747;BME280;19118;50.860;13.662;2023-02-19T13:58:37;97173.03;;;3.87;100.00
32747;BME280;19118;50.860;13.662;2023-02-19T14:04:06;97195.41;;;3.36;100.00
32747;BME280;19118;50.860;13.662;2023-02-19T14:14:44;97188.47;;;3.27;100.00
32747;BME280;19118;50.860;13.662;2023-02-19T14:19:48;97210.47;;;3.06;100.00
32747;BME280;19118;50.860;13.662;2023-02-19T14:24:51;97218.56;;;3.03;100.00
32747;BME280;19118;50.860;13.662;2023-02-19T14:29:52;97220.16;;;2.86;100.00
32747;BME280;19118;50.860;13.662;2023-02-19T14:34:53;97236.66;;;2.87;100.00
32747;BME280;19118;50.860;13.662;2023-02-19T14:39:53;97230.16;;;2.63;100.00
32747;BME280;19118;50.860;13.662;2023-02-19T14:44:58;97238.00;;;2.54;100.00
32747;BME280;19118;50.860;13.662;2023-02-19T14:50:03;97242.84;;;2.39;100.00
32747;BME280;19118;50.860;13.662;2023-02-19T15:00:27;97270.41;;;2.61;100.00
32747;BME280;19118;50.860;13.662;2023-02-19T15:05:31;97275.81;;;2.97;100.00
32747;BME280;19118;50.860;13.662;2023-02-19T15:10:32;97275.47;;;3.09;100.00
32747;BME280;19118;50.860;13.662;2023-02-19T15:15:38;97272.38;;;3.24;100.00
32747;BME280;19118;50.860;13.662;2023-02-19T15:20:42;97280.53;;;3.20;100.00
32747;BME280;19118;50.860;13.662;2023-02-19T15:25:43;97286.63;;;3.02;100.00
32747;BME280;19118;50.860;13.662;2023-02-19T15:30:43;97282.56;;;2.80;100.00
32747;BME280;19118;50.860;13.662;2023-02-19T15:35:48;97297.19;;;2.63;100.00
32747;BME280;19118;50.860;13.662;2023-02-19T15:40:49;97285.00;;;2.44;100.00
32747;BME280;19118;50.860;13.662;2023-02-19T15:45:54;97279.47;;;2.47;100.00
32747;BME280;19118;50.860;13.662;2023-02-19T15:51:00;97291.47;;;2.50;100.00
32747;BME280;19118;50.860;13.662;2023-02-19T15:56:19;97288.44;;;2.35;100.00
32747;BME280;19118;50.860;13.662;2023-02-19T16:01:27;97296.97;;;2.18;100.00
32747;BME280;19118;50.860;13.662;2023-02-19T16:11:53;97294.75;;;1.84;100.00
32747;BME280;19118;50.860;13.662;2023-02-19T16:17:10;97304.63;;;1.71;100.00
32747;BME280;19118;50.860;13.662;2023-02-19T16:22:16;97299.41;;;1.71;100.00
32747;BME280;19118;50.860;13.662;2023-02-19T16:32:31;97311.53;;;1.41;100.00
32747;BME280;19118;50.860;13.662;2023-02-19T16:42:35;97317.13;;;1.27;100.00
32747;BME280;19118;50.860;13.662;2023-02-19T16:47:37;97341.22;;;1.20;100.00
32747;BME280;19118;50.860;13.662;2023-02-19T16:52:53;97360.97;;;1.22;100.00
32747;BME280;19118;50.860;13.662;2023-02-19T16:57:54;97356.72;;;1.21;100.00
32747;BME280;19118;50.860;13.662;2023-02-19T17:03:01;97360.97;;;1.22;100.00
32747;BME280;19118;50.860;13.662;2023-02-19T17:08:18;97384.81;;;1.17;100.00
32747;BME280;19118;50.860;13.662;2023-02-19T17:13:22;97396.53;;;1.12;100.00
32747;BME280;19118;50.860;13.662;2023-02-19T17:18:22;97414.22;;;1.08;100.00
32747;BME280;19118;50.860;13.662;2023-02-19T17:23:22;97409.56;;;0.06;100.00
32747;BME280;19118;50.860;13.662;2023-02-19T17:28:23;97416.69;;;-0.07;100.00
32747;BME280;19118;50.860;13.662;2023-02-19T17:33:23;97424.25;;;-0.15;100.00
32747;BME280;19118;50.860;13.662;2023-02-19T17:38:23;97443.91;;;-0.34;100.00
32747;BME280;19118;50.860;13.662;2023-02-19T17:43:24;97451.91;;;-0.25;100.00
32747;BME280;19118;50.860;13.662;2023-02-19T17:48:24;97457.22;;;-0.27;100.00
32747;BME280;19118;50.860;13.662;2023-02-19T17:53:25;97478.59;;;-0.35;100.00
32747;BME280;19118;50.860;13.662;2023-02-19T17:58:25;97477.69;;;-0.34;100.00
32747;BME280;19118;50.860;13.662;2023-02-19T18:03:25;97495.63;;;-0.31;100.00
32747;BME280;19118;50.860;13.662;2023-02-19T18:08:25;97504.13;;;-0.40;100.00
32747;BME280;19118;50.860;13.662;2023-02-19T18:13:26;97505.31;;;-0.33;100.00
32747;BME280;19118;50.860;13.662;2023-02-19T18:18:26;97514.41;;;-0.16;100.00
32747;BME280;19118;50.860;13.662;2023-02-19T18:23:26;97527.06;;;-0.11;100.00
32747;BME280;19118;50.860;13.662;2023-02-19T18:28:27;97537.44;;;0.11;100.00
32747;BME280;19118;50.860;13.662;2023-02-19T18:33:27;97530.13;;;0.05;100.00
32747;BME280;19118;50.860;13.662;2023-02-19T18:38:27;97531.66;;;-0.04;100.00
32747;BME280;19118;50.860;13.662;2023-02-19T18:43:28;97540.63;;;-0.08;100.00
32747;BME280;19118;50.860;13.662;2023-02-19T18:48:28;97538.75;;;-0.17;100.00
32747;BME280;19118;50.860;13.662;2023-02-19T18:53:28;97540.28;;;-0.03;100.00
32747;BME280;19118;50.860;13.662;2023-02-19T18:58:29;97548.56;;;-0.09;100.00
32747;BME280;19118;50.860;13.662;2023-02-19T19:03:30;97560.34;;;-0.27;100.00
32747;BME280;19118;50.860;13.662;2023-02-19T19:08:31;97558.06;;;-0.54;100.00
32747;BME280;19118;50.860;13.662;2023-02-19T19:13:32;97564.09;;;-0.54;100.00
32747;BME280;19118;50.860;13.662;2023-02-19T19:18:32;97557.13;;;-0.53;100.00
32747;BME280;19118;50.860;13.662;2023-02-19T19:23:37;97567.38;;;-0.52;100.00
32747;BME280;19118;50.860;13.662;2023-02-19T19:28:37;97587.50;;;-0.43;100.00
32747;BME280;19118;50.860;13.662;2023-02-19T19:33:45;97592.06;;;-0.46;100.00
32747;BME280;19118;50.860;13.662;2023-02-19T19:38:46;97577.78;;;-0.52;100.00
32747;BME280;19118;50.860;13.662;2023-02-19T19:43:47;97574.59;;;-0.55;100.00
32747;BME280;19118;50.860;13.662;2023-02-19T19:48:49;97578.94;;;-0.67;100.00
32747;BME280;19118;50.860;13.662;2023-02-19T19:53:50;97589.09;;;-0.64;100.00
32747;BME280;19118;50.860;13.662;2023-02-19T19:58:50;97581.06;;;-0.61;100.00
32747;BME280;19118;50.860;13.662;2023-02-19T20:03:50;97590.56;;;-0.73;100.00
32747;BME280;19118;50.860;13.662;2023-02-19T20:08:51;97581.84;;;-0.72;100.00
32747;BME280;19118;50.860;13.662;2023-02-19T20:13:51;97593.78;;;-0.69;100.00
32747;BME280;19118;50.860;13.662;2023-02-19T20:18:51;97589.75;;;-0.73;100.00
32747;BME280;19118;50.860;13.662;2023-02-19T20:23:52;97590.69;;;-0.74;100.00
32747;BME280;19118;50.860;13.662;2023-02-19T20:28:53;97586.25;;;-0.96;100.00
32747;BME280;19118;50.860;13.662;2023-02-19T20:33:53;97591.66;;;-0.99;100.00
32747;BME280;19118;50.860;13.662;2023-02-19T20:38:54;97591.25;;;-1.06;100.00
32747;BME280;19118;50.860;13.662;2023-02-19T20:43:55;97590.00;;;-1.24;100.00
32747;BME280;19118;50.860;13.662;2023-02-19T20:48:55;97594.75;;;-1.18;100.00
32747;BME280;19118;50.860;13.662;2023-02-19T20:53:56;97599.28;;;-1.09;100.00
32747;BME280;19118;50.860;13.662;2023-02-19T20:58:57;97602.81;;;-1.10;100.00
32747;BME280;19118;50.860;13.662;2023-02-19T21:03:57;97614.97;;;-1.10;100.00
32747;BME280;19118;50.860;13.662;2023-02-19T21:08:57;97620.97;;;-1.10;100.00
32747;BME280;19118;50.860;13.662;2023-02-19T21:13:58;97631.28;;;-1.21;100.00
32747;BME280;19118;50.860;13.662;2023-02-19T21:18:59;97649.34;;;-1.20;100.00
32747;BME280;19118;50.860;13.662;2023-02-19T21:24:00;97655.97;;;-1.15;100.00
32747;BME280;19118;50.860;13.662;2023-02-19T21:29:05;97652.66;;;-1.18;100.00
32747;BME280;19118;50.860;13.662;2023-02-19T21:34:07;97650.88;;;-1.17;100.00
32747;BME280;19118;50.860;13.662;2023-02-19T21:39:09;97660.69;;;-1.33;100.00
32747;BME280;19118;50.860;13.662;2023-02-19T21:44:11;97678.84;;;-1.33;100.00
32747;BME280;19118;50.860;13.662;2023-02-19T21:49:11;97675.53;;;-1.35;100.00
32747;BME280;19118;50.860;13.662;2023-02-19T21:54:22;97683.66;;;-1.53;100.00
32747;BME280;19118;50.860;13.662;2023-02-19T21:59:23;97683.31;;;-1.35;100.00
32747;BME280;19118;50.860;13.662;2023-02-19T22:04:24;97684.63;;;-1.17;100.00
32747;BME280;19118;50.860;13.662;2023-02-19T22:09:24;97680.09;;;-0.90;100.00
32747;BME280;19118;50.860;13.662;2023-02-19T22:14:25;97670.06;;;-0.59;100.00
32747;BME280;19118;50.860;13.662;2023-02-19T22:19:25;97673.47;;;-0.35;100.00
32747;BME280;19118;50.860;13.662;2023-02-19T22:24:25;97662.69;;;-0.06;100.00
32747;BME280;19118;50.860;13.662;2023-02-19T22:29:26;97660.22;;;-0.08;100.00
32747;BME280;19118;50.860;13.662;2023-02-19T22:34:26;97647.28;;;-0.32;100.00
32747;BME280;19118;50.860;13.662;2023-02-19T22:39:26;97639.53;;;-0.55;100.00
32747;BME280;19118;50.860;13.662;2023-02-19T22:44:27;97643.72;;;-0.31;100.00
32747;BME280;19118;50.860;13.662;2023-02-19T22:49:27;97651.00;;;-0.01;100.00
32747;BME280;19118;50.860;13.662;2023-02-19T22:54:27;97662.97;;;0.24;100.00
32747;BME280;19118;50.860;13.662;2023-02-19T22:59:28;97663.94;;;0.46;100.00
32747;BME280;19118;50.860;13.662;2023-02-19T23:04:28;97646.88;;;0.64;100.00
32747;BME280;19118;50.860;13.662;2023-02-19T23:09:29;97649.25;;;0.67;100.00
32747;BME280;19118;50.860;13.662;2023-02-19T23:14:29;97643.31;;;0.76;100.00
32747;BME280;19118;50.860;13.662;2023-02-19T23:19:30;97629.84;;;0.82;100.00
32747;BME280;19118;50.860;13.662;2023-02-19T23:24:31;97614.31;;;0.92;100.00
32747;BME280;19118;50.860;13.662;2023-02-19T23:29:31;97608.16;;;0.93;100.00
32747;BME280;19118;50.860;13.662;2023-02-19T23:34:31;97587.91;;;0.97;100.00
32747;BME280;19118;50.860;13.662;2023-02-19T23:39:32;97583.41;;;0.99;100.00
32747;BME280;19118;50.860;13.662;2023-02-19T23:44:32;97579.94;;;1.09;100.00
32747;BME280;19118;50.860;13.662;2023-02-19T23:49:32;97575.06;;;1.16;100.00
32747;BME280;19118;50.860;13.662;2023-02-19T23:54:33;97579.28;;;1.28;100.00
32747;BME280;19118;50.860;13.662;2023-02-19T23:59:33;97566.81;;;1.53;100.00
